createdAt,value
2022-11-17T00:00:24.925Z,14.90
2022-11-17T00:02:52.947Z,10.57
2022-11-17T00:05:21.259Z,9.93
2022-11-17T00:07:50.054Z,12.63
2022-11-17T00:10:19.208Z,11.73
2022-11-17T00:13:05.958Z,9.10
2022-11-17T00:15:34.144Z,8.30
2022-11-17T00:18:20.899Z,8.00
2022-11-17T00:21:06.020Z,13.90
2022-11-17T00:23:48.091Z,14.83
2022-11-17T00:26:16.941Z,11.17
2022-11-17T00:28:46.347Z,10.03
2022-11-17T00:31:32.891Z,9.73
2022-11-17T00:34:07.687Z,11.27
2022-11-17T00:36:39.091Z,11.53
2022-11-17T00:39:07.704Z,10.97
2022-11-17T00:41:36.007Z,9.00
2022-11-17T00:44:06.171Z,10.80
2022-11-17T00:46:34.596Z,10.67
2022-11-17T00:49:02.650Z,14.20
2022-11-17T00:51:30.610Z,6.90
2022-11-17T00:53:58.871Z,11.47
2022-11-17T00:56:27.051Z,8.07
2022-11-17T00:58:55.262Z,6.90
2022-11-17T01:01:25.025Z,16.93
2022-11-17T01:04:02.968Z,12.67
2022-11-17T01:06:33.628Z,7.73
2022-11-17T01:09:01.738Z,10.60
2022-11-17T01:11:30.178Z,7.60
2022-11-17T01:14:00.262Z,6.93
2022-11-17T01:16:30.959Z,12.83
2022-11-17T01:19:01.220Z,9.30
2022-11-17T01:21:31.465Z,10.90
2022-11-17T01:24:01.480Z,9.37
2022-11-17T01:26:31.759Z,8.03
2022-11-17T01:29:00.616Z,5.23
2022-11-17T01:31:32.021Z,8.77
2022-11-17T01:34:00.315Z,6.03
2022-11-17T01:36:30.070Z,9.90
2022-11-17T01:38:58.343Z,6.83
2022-11-17T01:41:27.964Z,7.37
2022-11-17T01:43:57.717Z,6.70
2022-11-17T01:46:33.460Z,6.47
2022-11-17T01:49:06.693Z,5.73
2022-11-17T01:51:39.487Z,7.20
2022-11-17T01:54:08.753Z,10.13
2022-11-17T01:56:40.478Z,7.63
2022-11-17T01:59:11.359Z,6.57
2022-11-17T02:01:55.725Z,7.33
2022-11-17T02:04:27.058Z,3.87
2022-11-17T02:07:01.827Z,4.67
2022-11-17T02:09:30.516Z,5.77
2022-11-17T02:14:57.159Z,3.30
2022-11-17T02:17:34.834Z,4.37
2022-11-17T02:20:09.017Z,4.13
2022-11-17T02:23:25.486Z,7.33
2022-11-17T02:26:09.019Z,3.97
2022-11-17T02:28:40.554Z,6.13
2022-11-17T02:31:20.738Z,3.70
2022-11-17T02:33:56.872Z,3.57
2022-11-17T02:36:33.391Z,6.57
2022-11-17T02:39:11.163Z,3.70
2022-11-17T02:41:47.541Z,4.30
2022-11-17T02:44:21.745Z,3.03
2022-11-17T02:46:55.734Z,3.50
2022-11-17T02:49:27.052Z,3.60
2022-11-17T02:51:57.916Z,6.33
2022-11-17T02:54:29.303Z,5.97
2022-11-17T02:56:57.266Z,3.40
2022-11-17T02:59:31.318Z,4.60
2022-11-17T03:02:20.575Z,5.43
2022-11-17T03:05:05.404Z,4.93
2022-11-17T03:07:48.201Z,5.20
2022-11-17T03:10:20.752Z,11.40
2022-11-17T03:12:56.250Z,6.57
2022-11-17T03:15:33.687Z,7.17
2022-11-17T03:18:10.699Z,5.47
2022-11-17T03:20:48.759Z,9.33
2022-11-17T03:23:20.824Z,6.03
2022-11-17T03:25:54.894Z,4.73
2022-11-17T03:28:28.951Z,4.07
2022-11-17T03:31:00.485Z,6.20
2022-11-17T03:33:30.166Z,4.23
2022-11-17T03:36:04.837Z,5.80
2022-11-17T03:38:36.209Z,6.27
2022-11-17T03:41:07.748Z,4.83
2022-11-17T03:43:37.773Z,5.97
2022-11-17T03:46:11.593Z,5.70
2022-11-17T03:48:45.834Z,5.60
2022-11-17T03:51:17.622Z,6.70
2022-11-17T03:53:47.034Z,6.70
2022-11-17T03:56:26.377Z,8.60
2022-11-17T03:59:00.315Z,4.97
2022-11-17T04:01:32.290Z,4.90
2022-11-17T04:04:00.992Z,3.90
2022-11-17T04:06:29.037Z,4.03
2022-11-17T04:08:57.059Z,4.57
2022-11-17T04:11:42.431Z,5.73
2022-11-17T04:14:28.228Z,4.93
2022-11-17T04:16:57.606Z,5.77
2022-11-17T04:19:25.681Z,7.53
2022-11-17T04:21:53.710Z,7.83
2022-11-17T04:24:21.721Z,6.97
2022-11-17T04:27:07.307Z,5.00
2022-11-17T04:29:35.320Z,6.73
2022-11-17T04:32:05.091Z,6.43
2022-11-17T04:34:33.079Z,5.17
2022-11-17T04:37:06.954Z,5.97
2022-11-17T04:39:38.822Z,6.30
2022-11-17T04:42:05.902Z,5.23
2022-11-17T04:44:34.005Z,5.43
2022-11-17T04:47:03.678Z,9.20
2022-11-17T04:49:33.814Z,6.63
2022-11-17T04:52:02.698Z,4.57
2022-11-17T04:54:30.770Z,5.97
2022-11-17T04:56:58.929Z,8.13
2022-11-17T04:59:26.990Z,6.67
2022-11-17T05:01:55.258Z,7.77
2022-11-17T05:04:37.200Z,8.47
2022-11-17T05:07:07.022Z,7.87
2022-11-17T05:09:35.148Z,4.97
2022-11-17T05:12:20.390Z,4.53
2022-11-17T05:14:50.356Z,6.77
2022-11-17T05:17:17.936Z,7.87
2022-11-17T05:19:47.267Z,6.47
2022-11-17T05:22:35.751Z,9.37
2022-11-17T05:25:04.851Z,8.97
2022-11-17T05:27:33.745Z,9.07
2022-11-17T05:30:01.960Z,11.17
2022-11-17T05:32:30.051Z,14.87
2022-11-17T05:34:58.056Z,13.73
2022-11-17T05:37:27.475Z,6.53
2022-11-17T05:39:55.498Z,7.47
2022-11-17T05:42:23.563Z,7.80
2022-11-17T05:44:51.553Z,7.33
2022-11-17T05:47:19.626Z,5.37
2022-11-17T05:49:47.532Z,7.83
2022-11-17T05:52:15.575Z,4.97
2022-11-17T05:54:44.916Z,4.27
2022-11-17T05:57:16.308Z,3.90
2022-11-17T05:59:47.666Z,5.37
2022-11-17T06:02:20.048Z,3.63
2022-11-17T06:04:50.494Z,6.63
2022-11-17T06:07:20.695Z,3.33
2022-11-17T06:09:52.194Z,6.23
2022-11-17T06:12:20.308Z,4.07
2022-11-17T06:14:48.326Z,9.07
2022-11-17T06:17:22.876Z,4.37
2022-11-17T06:19:56.455Z,5.10
2022-11-17T06:22:26.478Z,6.73
2022-11-17T06:24:56.825Z,7.23
2022-11-17T06:27:25.845Z,7.90
2022-11-17T06:29:54.998Z,5.83
2022-11-17T06:32:22.954Z,3.53
2022-11-17T06:34:55.696Z,3.83
2022-11-17T06:37:24.881Z,3.63
2022-11-17T06:39:52.939Z,7.30
2022-11-17T06:42:42.917Z,4.00
2022-11-17T06:45:12.268Z,2.70
2022-11-17T06:47:40.306Z,3.37
2022-11-17T06:50:08.888Z,3.07
2022-11-17T06:52:36.864Z,2.70
2022-11-17T06:55:05.067Z,2.57
2022-11-17T06:57:34.387Z,3.30
2022-11-17T07:00:02.318Z,4.63
2022-11-17T07:02:32.464Z,3.73
2022-11-17T07:05:00.531Z,8.33
2022-11-17T07:07:28.711Z,2.40
2022-11-17T07:09:56.743Z,8.03
2022-11-17T07:12:24.757Z,3.17
2022-11-17T07:14:54.209Z,2.80
2022-11-17T07:17:22.202Z,2.63
2022-11-17T07:19:50.199Z,5.20
2022-11-17T07:22:18.178Z,3.40
2022-11-17T07:24:46.182Z,2.40
2022-11-17T07:27:14.619Z,4.90
2022-11-17T07:29:42.675Z,3.43
2022-11-17T07:32:14.941Z,5.13
2022-11-17T07:34:43.032Z,54.23
2022-11-17T07:37:11.036Z,31.60
2022-11-17T07:39:38.943Z,6.53
2022-11-17T07:42:07.315Z,7.60
2022-11-17T07:44:35.597Z,7.17
2022-11-17T07:47:03.595Z,9.43
2022-11-17T07:49:32.977Z,6.70
2022-11-17T07:52:01.923Z,9.50
2022-11-17T07:54:29.870Z,5.33
2022-11-17T07:56:57.835Z,3.13
2022-11-17T07:59:25.848Z,3.17
2022-11-17T08:01:53.838Z,5.77
2022-11-17T08:04:21.864Z,6.83
2022-11-17T08:06:51.254Z,6.47
2022-11-17T08:09:19.275Z,5.47
2022-11-17T08:11:47.239Z,4.43
2022-11-17T08:14:15.211Z,1.90
2022-11-17T08:16:43.209Z,4.70
2022-11-17T08:19:12.038Z,6.73
2022-11-17T08:21:41.148Z,3.40
2022-11-17T08:24:12.833Z,4.80
2022-11-17T08:26:41.152Z,1.10
2022-11-17T08:29:09.655Z,2.03
2022-11-17T08:31:37.665Z,1.50
2022-11-17T08:34:05.778Z,1.97
2022-11-17T08:36:33.832Z,1.87
2022-11-17T08:39:01.913Z,3.70
2022-11-17T08:41:32.137Z,2.47
2022-11-17T08:44:00.500Z,6.03
2022-11-17T08:46:28.505Z,2.13
2022-11-17T08:48:57.205Z,3.23
2022-11-17T08:51:27.284Z,3.00
2022-11-17T08:53:55.361Z,1.83
2022-11-17T08:56:23.339Z,2.50
2022-11-17T08:58:52.794Z,2.93
2022-11-17T09:01:20.819Z,1.07
2022-11-17T09:03:49.239Z,2.77
2022-11-17T09:06:18.308Z,1.50
2022-11-17T09:08:47.445Z,1.80
2022-11-17T09:11:16.755Z,1.30
2022-11-17T09:13:45.909Z,0.87
2022-11-17T09:16:16.049Z,0.77
2022-11-17T09:18:44.471Z,3.40
2022-11-17T09:21:15.279Z,3.17
2022-11-17T09:23:44.008Z,2.70
2022-11-17T09:26:14.549Z,3.23
2022-11-17T09:28:42.994Z,1.67
2022-11-17T09:31:12.962Z,4.67
2022-11-17T09:33:42.802Z,2.63
2022-11-17T09:36:11.523Z,2.23
2022-11-17T09:38:40.242Z,2.33
2022-11-17T09:41:22.280Z,1.43
2022-11-17T09:43:55.437Z,5.63
2022-11-17T09:46:28.799Z,1.90
2022-11-17T09:49:07.890Z,0.87
2022-11-17T09:51:39.373Z,3.17
2022-11-17T09:54:14.495Z,5.93
2022-11-17T09:56:42.582Z,2.50
2022-11-17T09:59:15.318Z,3.23
2022-11-17T10:01:43.466Z,1.80
2022-11-17T10:04:16.811Z,3.60
2022-11-17T10:06:47.905Z,5.83
2022-11-17T10:09:25.655Z,1.17
2022-11-17T10:11:55.795Z,1.97
2022-11-17T10:14:24.072Z,8.80
2022-11-17T10:16:54.374Z,15.40
2022-11-17T10:19:26.148Z,16.77
2022-11-17T10:21:57.947Z,3.93
2022-11-17T10:24:37.473Z,5.30
2022-11-17T10:27:07.569Z,3.60
2022-11-17T10:29:35.496Z,2.77
2022-11-17T10:32:09.814Z,6.70
2022-11-17T10:34:41.696Z,2.67
2022-11-17T10:37:26.505Z,4.93
2022-11-17T10:40:19.245Z,6.53
2022-11-17T10:43:03.623Z,5.37
2022-11-17T10:45:32.488Z,8.13
2022-11-17T10:48:17.874Z,9.00
2022-11-17T10:50:55.192Z,4.50
2022-11-17T10:53:41.264Z,6.37
2022-11-17T10:56:15.748Z,4.17
2022-11-17T10:59:00.698Z,4.27
2022-11-17T11:01:35.166Z,5.20
2022-11-17T11:04:04.484Z,4.47
2022-11-17T11:06:35.865Z,2.80
2022-11-17T11:09:08.216Z,5.83
2022-11-17T11:11:44.538Z,8.73
2022-11-17T11:14:20.874Z,3.73
2022-11-17T11:16:51.420Z,11.43
2022-11-17T11:19:21.134Z,13.10
2022-11-17T11:22:21.427Z,13.67
2022-11-17T11:24:54.592Z,10.37
2022-11-17T11:27:38.589Z,5.97
2022-11-17T11:30:11.337Z,9.67
2022-11-17T11:32:52.001Z,7.20
2022-11-17T11:35:34.860Z,12.97
2022-11-17T11:38:16.916Z,6.90
2022-11-17T11:40:55.875Z,12.70
2022-11-17T11:43:35.241Z,12.23
2022-11-17T11:46:11.528Z,16.30
2022-11-17T11:48:41.939Z,12.70
2022-11-17T11:51:16.341Z,6.33
2022-11-17T11:53:53.539Z,7.73
2022-11-17T11:56:27.009Z,7.70
2022-11-17T11:59:00.052Z,4.27
2022-11-17T12:01:30.016Z,7.37
2022-11-17T12:04:13.943Z,4.40
2022-11-17T12:06:53.975Z,3.47
2022-11-17T12:09:48.632Z,5.40
2022-11-17T12:12:19.465Z,3.47
2022-11-17T12:15:28.861Z,9.40
2022-11-17T12:18:02.068Z,7.23
2022-11-17T12:20:58.899Z,38.90
2022-11-17T12:23:58.878Z,10.03
2022-11-17T12:26:30.150Z,8.37
2022-11-17T12:29:29.150Z,9.03
2022-11-17T12:31:58.094Z,8.60
2022-11-17T12:34:30.592Z,6.40
2022-11-17T12:37:27.424Z,8.33
2022-11-17T12:40:00.604Z,6.03
2022-11-17T12:42:31.587Z,5.67
2022-11-17T12:45:01.788Z,3.93
2022-11-17T12:47:32.118Z,10.13
2022-11-17T12:50:30.024Z,4.40
2022-11-17T12:53:17.165Z,9.43
2022-11-17T12:56:10.038Z,11.60
2022-11-17T12:58:50.180Z,69.63
2022-11-17T13:01:26.774Z,6.80
2022-11-17T13:04:00.397Z,11.57
2022-11-17T13:06:35.346Z,11.33
2022-11-17T13:09:07.297Z,12.43
2022-11-17T13:11:36.113Z,30.70
2022-11-17T13:14:14.526Z,9.27
2022-11-17T13:16:48.027Z,7.20
2022-11-17T13:19:41.614Z,4.97
2022-11-17T13:22:16.505Z,3.13
2022-11-17T13:28:45.472Z,12.97
2022-11-17T13:31:19.316Z,12.20
2022-11-17T13:33:56.892Z,10.33
2022-11-17T13:36:27.318Z,41.80
2022-11-17T13:38:57.365Z,143.73
2022-11-17T13:41:26.444Z,115.57
2022-11-17T13:43:56.099Z,168.40
2022-11-17T13:46:25.496Z,257.90
2022-11-17T13:48:53.580Z,61.57
2022-11-17T13:51:35.011Z,15.23
2022-11-17T13:54:07.374Z,18.13
2022-11-17T13:56:37.961Z,22.43
2022-11-17T13:59:18.546Z,12.43
2022-11-17T14:01:48.031Z,19.40
2022-11-17T14:04:22.074Z,14.37
2022-11-17T14:06:59.804Z,17.53
2022-11-17T14:09:29.645Z,18.43
2022-11-17T14:11:59.037Z,13.10
2022-11-17T14:14:35.461Z,14.03
2022-11-17T14:17:14.161Z,12.27
2022-11-17T14:19:42.187Z,19.23
2022-11-17T14:22:30.821Z,20.77
2022-11-17T14:24:59.805Z,18.27
2022-11-17T14:27:39.086Z,11.77
2022-11-17T14:30:08.112Z,10.13
2022-11-17T14:32:37.450Z,10.00
2022-11-17T14:35:05.899Z,18.77
2022-11-17T14:37:34.120Z,15.47
2022-11-17T14:40:05.222Z,16.93
2022-11-17T14:42:36.072Z,12.43
2022-11-17T14:45:05.185Z,24.10
2022-11-17T14:47:33.148Z,15.63
2022-11-17T14:50:03.303Z,15.10
2022-11-17T14:52:31.279Z,14.27
2022-11-17T14:55:00.716Z,10.17
2022-11-17T14:57:28.690Z,9.27
2022-11-17T14:59:56.918Z,16.93
2022-11-17T15:02:24.972Z,16.50
2022-11-17T15:04:53.665Z,13.13
2022-11-17T15:07:23.493Z,9.87
2022-11-17T15:09:51.540Z,12.87
2022-11-17T15:12:19.678Z,11.60
2022-11-17T15:14:48.428Z,11.83
2022-11-17T15:17:16.879Z,10.90
2022-11-17T15:19:45.294Z,11.70
2022-11-17T15:22:13.272Z,17.87
2022-11-17T15:24:42.633Z,22.17
2022-11-17T15:27:11.048Z,26.73
2022-11-17T15:29:39.220Z,23.63
2022-11-17T15:32:07.737Z,21.30
2022-11-17T15:34:35.901Z,32.17
2022-11-17T15:37:03.908Z,18.73
2022-11-17T15:39:31.978Z,33.33
2022-11-17T15:42:01.352Z,15.30
2022-11-17T15:44:30.196Z,8.93
2022-11-17T15:46:58.205Z,16.00
2022-11-17T15:49:26.265Z,17.17
2022-11-17T15:51:54.492Z,10.10
2022-11-17T15:54:23.433Z,11.63
2022-11-17T15:56:52.208Z,10.10
2022-11-17T15:59:21.603Z,13.50
2022-11-17T16:01:50.211Z,6.43
2022-11-17T16:04:18.239Z,12.47
2022-11-17T16:06:47.387Z,13.83
2022-11-17T16:09:16.140Z,57.20
2022-11-17T16:11:44.771Z,33.87
2022-11-17T16:14:14.789Z,24.93
2022-11-17T16:16:46.762Z,15.80
2022-11-17T16:19:15.115Z,13.83
2022-11-17T16:21:44.587Z,15.33
2022-11-17T16:24:13.103Z,12.90
2022-11-17T16:26:41.240Z,14.60
2022-11-17T16:29:09.318Z,11.10
2022-11-17T16:31:39.779Z,9.40
2022-11-17T16:34:12.919Z,8.23
2022-11-17T16:36:42.273Z,7.57
2022-11-17T16:39:12.820Z,17.00
2022-11-17T16:41:42.778Z,10.17
2022-11-17T16:44:12.973Z,9.70
2022-11-17T16:46:43.410Z,11.17
2022-11-17T16:49:16.461Z,13.73
2022-11-17T16:51:48.809Z,9.30
2022-11-17T16:54:16.906Z,13.30
2022-11-17T16:56:45.053Z,14.77
2022-11-17T16:59:13.348Z,9.00
2022-11-17T17:01:41.866Z,9.00
2022-11-17T17:04:12.096Z,11.90
2022-11-17T17:06:43.675Z,11.63
2022-11-17T17:09:14.775Z,12.07
2022-11-17T17:11:43.396Z,10.53
2022-11-17T17:14:14.570Z,6.87
2022-11-17T17:16:43.642Z,4.23
2022-11-17T17:19:13.360Z,9.53
2022-11-17T17:21:44.381Z,8.37
2022-11-17T17:24:13.628Z,10.67
2022-11-17T17:26:42.354Z,12.47
2022-11-17T17:29:12.076Z,5.47
2022-11-17T17:31:41.910Z,11.13
2022-11-17T17:34:12.816Z,9.33
2022-11-17T17:36:42.138Z,5.87
2022-11-17T17:39:14.636Z,8.03
2022-11-17T17:41:44.187Z,9.57
2022-11-17T17:44:16.189Z,11.77
2022-11-17T17:46:44.468Z,12.40
2022-11-17T17:49:12.876Z,13.87
2022-11-17T17:51:44.300Z,10.57
2022-11-17T17:54:16.992Z,7.13
2022-11-17T17:56:45.339Z,7.30
2022-11-17T17:59:14.489Z,6.57
2022-11-17T18:01:45.997Z,7.17
2022-11-17T18:04:16.174Z,9.37
2022-11-17T18:06:48.245Z,5.20
2022-11-17T18:09:19.428Z,9.73
2022-11-17T18:11:49.488Z,5.60
2022-11-17T18:14:22.509Z,9.47
2022-11-17T18:16:51.150Z,7.37
2022-11-17T18:19:19.844Z,7.60
2022-11-17T18:21:49.294Z,9.60
2022-11-17T18:24:17.346Z,4.80
2022-11-17T18:26:45.313Z,7.87
2022-11-17T18:29:16.248Z,3.77
2022-11-17T18:31:46.662Z,7.80
2022-11-17T18:34:16.578Z,13.00
2022-11-17T18:36:44.572Z,9.37
2022-11-17T18:39:15.268Z,8.50
2022-11-17T18:41:44.128Z,9.93
2022-11-17T18:44:13.402Z,10.87
2022-11-17T18:46:41.457Z,8.43
2022-11-17T18:49:09.905Z,9.10
2022-11-17T18:51:38.350Z,4.20
2022-11-17T18:54:07.618Z,6.37
2022-11-17T18:56:38.389Z,4.03
2022-11-17T18:59:11.563Z,2.57
2022-11-17T19:01:40.850Z,7.80
2022-11-17T19:04:09.079Z,6.70
2022-11-17T19:06:37.526Z,5.30
2022-11-17T19:09:06.078Z,4.20
2022-11-17T19:11:35.065Z,2.23
2022-11-17T19:14:05.870Z,4.90
2022-11-17T19:16:41.005Z,6.70
2022-11-17T19:19:13.156Z,11.33
2022-11-17T19:21:41.718Z,2.67
2022-11-17T19:24:10.161Z,3.33
2022-11-17T19:26:38.210Z,3.13
2022-11-17T19:29:15.584Z,4.13
2022-11-17T19:31:45.238Z,2.63
2022-11-17T19:34:13.496Z,2.80
2022-11-17T19:36:41.491Z,2.13
2022-11-17T19:39:09.516Z,4.20
2022-11-17T19:41:38.587Z,13.23
2022-11-17T19:44:09.921Z,2.73
2022-11-17T19:46:38.926Z,3.70
2022-11-17T19:49:07.644Z,3.70
2022-11-17T19:51:37.499Z,2.27
2022-11-17T19:54:07.308Z,1.67
2022-11-17T19:56:35.678Z,1.50
2022-11-17T19:59:04.041Z,3.93
2022-11-17T20:01:34.442Z,2.87
2022-11-17T20:04:03.494Z,7.20
2022-11-17T20:06:36.980Z,2.00
2022-11-17T20:09:08.121Z,4.23
2022-11-17T20:11:36.928Z,2.63
2022-11-17T20:14:05.339Z,3.90
2022-11-17T20:16:34.799Z,4.53
2022-11-17T20:19:03.285Z,2.93
2022-11-17T20:21:31.876Z,1.93
2022-11-17T20:24:01.193Z,3.57
2022-11-17T20:26:31.446Z,7.23
2022-11-17T20:29:00.297Z,3.67
2022-11-17T20:31:29.975Z,3.13
2022-11-17T20:34:01.424Z,3.07
2022-11-17T20:36:30.887Z,4.80
2022-11-17T20:39:01.317Z,4.23
2022-11-17T20:41:30.288Z,7.17
2022-11-17T20:44:00.429Z,8.20
2022-11-17T20:46:28.856Z,6.73
2022-11-17T20:48:57.029Z,5.97
2022-11-17T20:51:27.056Z,7.90
2022-11-17T20:53:55.229Z,5.67
2022-11-17T20:56:23.651Z,5.80
2022-11-17T20:58:51.742Z,4.23
2022-11-17T21:01:23.042Z,9.57
2022-11-17T21:03:51.267Z,6.10
2022-11-17T21:06:22.955Z,6.03
2022-11-17T21:08:52.694Z,3.00
2022-11-17T21:11:40.933Z,4.70
2022-11-17T21:14:10.223Z,4.97
2022-11-17T21:16:39.664Z,3.47
2022-11-17T21:19:08.072Z,8.83
2022-11-17T21:21:36.535Z,3.93
2022-11-17T21:24:06.570Z,3.70
2022-11-17T21:26:34.944Z,2.87
2022-11-17T21:29:06.401Z,1.63
2022-11-17T21:31:35.284Z,0.77
2022-11-17T21:34:05.279Z,4.07
2022-11-17T21:36:34.517Z,2.10
2022-11-17T21:39:02.685Z,1.07
2022-11-17T21:41:35.385Z,2.60
2022-11-17T21:44:05.012Z,3.57
2022-11-17T21:46:34.724Z,2.13
2022-11-17T21:49:03.117Z,2.80
2022-11-17T21:51:33.376Z,4.33
2022-11-17T21:54:03.475Z,7.00
2022-11-17T21:56:33.223Z,2.47
2022-11-17T21:59:02.785Z,2.37
2022-11-17T22:01:31.681Z,3.53
2022-11-17T22:04:00.099Z,1.40
2022-11-17T22:06:28.754Z,4.27
2022-11-17T22:08:57.883Z,0.60
2022-11-17T22:11:37.467Z,2.03
2022-11-17T22:14:09.881Z,1.40
2022-11-17T22:16:39.125Z,2.00
2022-11-17T22:19:08.974Z,2.47
2022-11-17T22:21:37.895Z,1.53
2022-11-17T22:24:07.208Z,0.90
2022-11-17T22:26:38.147Z,2.27
2022-11-17T22:29:09.665Z,2.20
2022-11-17T22:31:37.834Z,0.70
2022-11-17T22:34:05.983Z,1.90
2022-11-17T22:36:33.972Z,0.50
2022-11-17T22:39:02.028Z,1.73
2022-11-17T22:41:30.039Z,0.33
2022-11-17T22:43:58.819Z,1.30
2022-11-17T22:46:29.627Z,1.03
2022-11-17T22:48:57.819Z,0.80
2022-11-17T22:51:43.741Z,3.13
2022-11-17T22:54:11.795Z,0.60
2022-11-17T22:56:39.682Z,0.83
2022-11-17T22:59:08.224Z,2.83
2022-11-17T23:01:37.600Z,1.90
2022-11-17T23:04:05.821Z,0.60
2022-11-17T23:06:33.784Z,3.73
2022-11-17T23:09:01.887Z,0.97
2022-11-17T23:11:38.374Z,1.77
2022-11-17T23:14:07.977Z,1.03
2022-11-17T23:16:37.817Z,0.97
2022-11-17T23:19:06.689Z,1.50
2022-11-17T23:21:34.739Z,0.27
2022-11-17T23:24:03.560Z,2.53
2022-11-17T23:26:31.509Z,2.80
2022-11-17T23:28:59.457Z,1.13
2022-11-17T23:31:28.259Z,1.10
2022-11-17T23:33:57.882Z,0.37
2022-11-17T23:36:26.132Z,0.83
2022-11-17T23:38:56.689Z,1.27
2022-11-17T23:41:24.812Z,1.73
2022-11-17T23:43:54.520Z,1.07
2022-11-17T23:46:24.615Z,0.50
2022-11-17T23:48:53.349Z,0.47
2022-11-17T23:51:25.290Z,0.67
2022-11-17T23:53:53.981Z,0.70
2022-11-17T23:56:22.343Z,1.33
2022-11-17T23:58:50.837Z,2.50
